Time;durP1;ratioP1;P1;durP2;ratioP2;P2;SDS_P1;SDS_P2;PMS_P1;PMS_P2;Temp;Humidity;BMP_temperature;BMP_pressure;BME280_temperature;BME280_humidity;BME280_pressure;Samples;Min_cycle;Max_cycle;Signal;HPM_P1;HPM_P2
2022/04/08 00:02:05;;;;;;;10.17;9.43;;;;;;;4.10;99.60;98430.88;5054218;28;20545;-43
2022/04/08 00:04:35;;;;;;;12.80;9.57;;;;;;;4.12;99.66;98436.75;5054443;28;20462;-43
2022/04/08 00:07:02;;;;;;;10.83;10.13;;;;;;;4.09;99.48;98429.28;5054475;28;20434;-43
2022/04/08 00:09:30;;;;;;;10.30;9.30;;;;;;;4.15;99.03;98436.34;5054486;28;20784;-45
2022/04/08 00:11:58;;;;;;;8.67;8.17;;;;;;;4.13;98.54;98449.72;5054004;28;20447;-43
2022/04/08 00:14:26;;;;;;;8.90;8.40;;;;;;;4.18;97.77;98449.09;5054346;28;20934;-45
2022/04/08 00:16:53;;;;;;;10.17;9.27;;;;;;;4.19;97.74;98456.78;5054138;28;20439;-44
2022/04/08 00:19:21;;;;;;;9.30;8.70;;;;;;;4.23;98.25;98467.72;5054239;28;20432;-47
2022/04/08 00:21:50;;;;;;;8.70;8.20;;;;;;;4.25;98.02;98470.97;5054033;28;20487;-44
2022/04/08 00:24:18;;;;;;;8.70;8.10;;;;;;;4.31;97.21;98475.41;5053954;28;20435;-44
2022/04/08 00:26:46;;;;;;;9.30;8.60;;;;;;;4.33;96.65;98483.94;5053797;28;20463;-43
2022/04/08 00:29:14;;;;;;;9.30;8.77;;;;;;;4.39;96.61;98485.72;5054330;28;20431;-44
2022/04/08 00:31:42;;;;;;;9.13;8.60;;;;;;;4.40;96.11;98487.31;5053867;28;20462;-45
2022/04/08 00:34:10;;;;;;;8.87;8.13;;;;;;;4.40;95.80;98496.06;5053957;28;20530;-43
2022/04/08 00:36:37;;;;;;;9.13;8.33;;;;;;;4.41;95.79;98502.97;5053486;28;20467;-45
2022/04/08 00:39:08;;;;;;;9.33;8.43;;;;;;;4.41;96.31;98510.06;5053786;28;20443;-48
2022/04/08 00:41:35;;;;;;;9.87;8.80;;;;;;;4.42;96.91;98512.47;5053657;28;20475;-45
2022/04/08 00:44:04;;;;;;;10.77;9.90;;;;;;;4.48;97.72;98511.63;5052775;28;20435;-44
2022/04/08 00:46:32;;;;;;;11.70;9.00;;;;;;;4.47;97.39;98515.31;5041852;28;21033;-46
2022/04/08 00:49:00;;;;;;;9.90;9.10;;;;;;;4.51;97.93;98528.09;5030627;28;20436;-48
2022/04/08 00:51:27;;;;;;;10.63;9.63;;;;;;;4.45;99.00;98540.25;5030941;28;20458;-47
2022/04/08 00:53:55;;;;;;;11.50;10.50;;;;;;;4.48;99.21;98545.13;5033054;28;20815;-44
2022/04/08 00:56:24;;;;;;;11.97;10.83;;;;;;;4.48;98.92;98545.94;5033229;28;20800;-43
2022/04/08 00:58:52;;;;;;;10.63;9.90;;;;;;;4.46;99.23;98548.00;5033753;28;20807;-46
2022/04/08 01:01:19;;;;;;;12.80;9.70;;;;;;;4.47;98.58;98557.53;5033169;28;20567;-50
2022/04/08 01:03:49;;;;;;;15.37;9.93;;;;;;;4.44;97.40;98562.41;5033560;28;20486;-44
2022/04/08 01:06:17;;;;;;;11.80;9.93;;;;;;;4.49;97.14;98567.88;5032895;28;20464;-45
2022/04/08 01:08:45;;;;;;;12.37;9.37;;;;;;;4.44;96.37;98565.06;5033563;28;20438;-46
2022/04/08 01:11:12;;;;;;;10.47;9.57;;;;;;;4.46;96.98;98574.38;5032984;28;20456;-45
2022/04/08 01:13:41;;;;;;;10.23;9.37;;;;;;;4.40;94.65;98580.50;5033330;28;20432;-44
2022/04/08 01:16:09;;;;;;;11.40;10.23;;;;;;;4.41;93.64;98584.75;5032825;28;20468;-45
2022/04/08 01:18:38;;;;;;;22.20;10.80;;;;;;;4.40;92.73;98598.16;5033161;28;20443;-46
2022/04/08 01:21:06;;;;;;;14.10;8.77;;;;;;;4.36;90.14;98597.75;5032999;28;20483;-48
2022/04/08 01:23:35;;;;;;;9.60;8.83;;;;;;;4.39;90.05;98604.47;5033325;28;20455;-45
2022/04/08 01:26:05;;;;;;;10.80;8.17;;;;;;;4.36;89.92;98620.72;5032742;28;20466;-46
2022/04/08 01:28:33;;;;;;;9.73;8.87;;;;;;;4.34;89.75;98615.63;5033117;28;20504;-46
2022/04/08 01:31:00;;;;;;;8.87;8.07;;;;;;;4.33;89.00;98631.69;5032784;28;21008;-49
2022/04/08 01:33:28;;;;;;;17.53;8.30;;;;;;;4.29;87.97;98639.19;5033159;28;20433;-45
2022/04/08 01:35:56;;;;;;;19.07;9.17;;;;;;;4.27;88.00;98640.44;5032390;28;20994;-45
2022/04/08 01:38:23;;;;;;;10.83;8.80;;;;;;;4.29;88.55;98649.75;5032777;28;20439;-45
2022/04/08 01:40:51;;;;;;;10.17;8.53;;;;;;;4.28;88.68;98661.31;5032490;28;20502;-44
2022/04/08 01:43:20;;;;;;;12.50;8.37;;;;;;;4.29;87.63;98664.78;5033030;28;20440;-46
2022/04/08 01:45:48;;;;;;;16.03;8.77;;;;;;;4.31;88.43;98665.38;5040503;28;20467;-46
2022/04/08 01:48:15;;;;;;;18.77;12.17;;;;;;;4.32;89.10;98667.81;5045085;28;20424;-45
2022/04/08 01:50:43;;;;;;;10.53;7.80;;;;;;;4.25;87.78;98658.28;5052400;28;20462;-43
2022/04/08 01:53:11;;;;;;;8.67;7.63;;;;;;;4.22;85.28;98671.88;5052544;28;20431;-47
2022/04/08 01:55:38;;;;;;;14.33;7.93;;;;;;;4.26;85.68;98675.72;5051809;28;20466;-47
2022/04/08 01:58:06;;;;;;;10.97;8.27;;;;;;;4.27;84.20;98674.72;5052559;28;20783;-45
2022/04/08 02:00:35;;;;;;;12.53;7.67;;;;;;;4.30;83.33;98680.38;5052044;28;20479;-43
2022/04/08 02:03:03;;;;;;;13.07;7.33;;;;;;;4.32;82.42;98685.47;5052971;28;20554;-51
2022/04/08 02:05:31;;;;;;;9.33;7.00;;;;;;;4.34;82.57;98692.16;5051790;28;20459;-45
2022/04/08 02:07:59;;;;;;;12.37;9.00;;;;;;;4.34;77.87;98691.34;5052180;28;20930;-48
2022/04/08 02:10:26;;;;;;;7.90;7.40;;;;;;;4.36;80.35;98703.31;5052057;28;20427;-48
2022/04/08 02:12:54;;;;;;;8.90;6.50;;;;;;;4.31;76.36;98707.56;5052102;28;20447;-50
2022/04/08 02:15:28;;;;;;;20.57;8.33;;;;;;;4.32;77.69;98719.75;5051531;28;21008;-47
2022/04/08 02:17:57;;;;;;;7.63;7.00;;;;;;;4.25;76.45;98725.03;5052272;28;20851;-45
2022/04/08 02:20:26;;;;;;;11.80;6.67;;;;;;;4.25;75.71;98725.03;5051818;28;20961;-45
2022/04/08 02:22:53;;;;;;;11.40;7.47;;;;;;;4.25;75.48;98740.06;5052019;28;20496;-44
2022/04/08 02:25:21;;;;;;;12.43;8.13;;;;;;;4.23;75.04;98734.19;5051530;28;20485;-50
2022/04/08 02:27:49;;;;;;;9.87;8.87;;;;;;;4.18;74.36;98741.91;5052114;28;20442;-44
2022/04/08 02:30:17;;;;;;;18.03;8.33;;;;;;;4.17;75.43;98748.19;5051860;28;20431;-46
2022/04/08 02:32:45;;;;;;;12.83;7.90;;;;;;;4.16;75.85;98757.09;5052090;28;20429;-51
2022/04/08 02:35:14;;;;;;;9.90;6.40;;;;;;;4.13;75.97;98768.06;5051315;28;20467;-47
2022/04/08 02:37:41;;;;;;;19.77;7.17;;;;;;;4.11;73.61;98770.09;5051591;28;20427;-43
2022/04/08 02:40:10;;;;;;;8.80;5.70;;;;;;;4.07;72.29;98785.53;5051600;28;20445;-46
2022/04/08 02:42:38;;;;;;;13.80;6.60;;;;;;;4.08;75.39;98796.88;5051571;28;20570;-49
2022/04/08 02:45:07;;;;;;;6.63;6.13;;;;;;;4.06;74.96;98788.38;5049075;28;20467;-49
2022/04/08 02:47:40;;;;;;;11.83;5.70;;;;;;;4.04;73.66;98807.03;5043478;28;20433;-48
2022/04/08 02:50:09;;;;;;;12.90;6.10;;;;;;;4.05;74.09;98813.13;5051505;28;21118;-48
2022/04/08 02:52:38;;;;;;;13.83;6.87;;;;;;;4.02;73.68;98811.69;5051690;28;20855;-45
2022/04/08 02:55:07;;;;;;;7.23;6.60;;;;;;;4.01;74.87;98810.06;5051362;28;20481;-45
2022/04/08 02:57:44;;;;;;;14.30;7.37;;;;;;;3.99;73.79;98813.91;5051908;28;20428;-46
2022/04/08 03:00:14;;;;;;;14.70;6.40;;;;;;;4.00;75.33;98815.56;5051433;28;20872;-44
2022/04/08 03:02:42;;;;;;;11.37;6.70;;;;;;;4.00;75.76;98816.38;5051355;28;20517;-45
2022/04/08 03:05:10;;;;;;;10.47;6.50;;;;;;;4.02;74.88;98824.88;5051183;28;20474;-46
2022/04/08 03:07:39;;;;;;;13.33;5.50;;;;;;;3.97;74.34;98822.03;5053527;28;20426;-46
2022/04/08 03:10:09;;;;;;;21.17;7.33;;;;;;;4.00;73.04;98826.91;5055691;28;20446;-47
2022/04/08 03:12:37;;;;;;;15.20;6.90;;;;;;;4.00;73.96;98826.09;5055426;28;20473;-46
2022/04/08 03:15:06;;;;;;;12.73;5.63;;;;;;;3.99;74.41;98829.75;5054956;28;20961;-46
2022/04/08 03:17:35;;;;;;;6.60;5.13;;;;;;;3.99;73.99;98825.28;5055668;28;20423;-47
2022/04/08 03:20:03;;;;;;;6.17;4.93;;;;;;;4.00;73.98;98828.75;5055611;28;20530;-47
2022/04/08 03:22:31;;;;;;;11.30;5.97;;;;;;;3.98;74.16;98833.38;5055185;28;20475;-47
2022/04/08 03:24:59;;;;;;;8.70;5.13;;;;;;;3.97;74.72;98829.13;5055008;28;20489;-45
2022/04/08 03:27:27;;;;;;;13.20;5.43;;;;;;;3.96;75.15;98830.16;5055365;28;20525;-44
2022/04/08 03:29:55;;;;;;;8.77;5.70;;;;;;;3.91;75.23;98831.53;5055067;28;20442;-48
2022/04/08 03:32:22;;;;;;;25.03;6.50;;;;;;;3.87;75.48;98834.78;5055071;28;20446;-46
2022/04/08 03:34:57;;;;;;;16.07;7.07;;;;;;;3.85;75.10;98831.56;5054865;28;20446;-47
2022/04/08 03:37:25;;;;;;;18.60;6.90;;;;;;;3.84;75.51;98843.94;5055222;28;20423;-45
2022/04/08 03:39:53;;;;;;;9.83;8.93;;;;;;;3.85;76.77;98842.88;5055303;28;20435;-46
2022/04/08 03:42:23;;;;;;;7.20;6.50;;;;;;;3.84;77.36;98848.38;5054533;28;20475;-49
2022/04/08 03:44:51;;;;;;;14.30;6.23;;;;;;;3.85;77.54;98842.09;5052399;28;20467;-47
2022/04/08 03:47:19;;;;;;;14.73;8.50;;;;;;;3.86;77.15;98854.25;5046663;28;20427;-47
2022/04/08 03:49:47;;;;;;;11.00;6.00;;;;;;;3.91;77.62;98857.91;5054833;28;20453;-44
2022/04/08 03:52:15;;;;;;;13.83;7.33;;;;;;;3.92;77.65;98870.09;5054673;28;20443;-45
2022/04/08 03:54:42;;;;;;;21.57;7.00;;;;;;;3.95;79.63;98871.53;5054217;28;20436;-51
2022/04/08 03:57:10;;;;;;;11.97;7.40;;;;;;;3.99;79.59;98869.31;5055081;28;20435;-47
2022/04/08 03:59:42;;;;;;;9.53;7.20;;;;;;;4.00;80.79;98863.03;5054599;28;20930;-49
2022/04/08 04:02:10;;;;;;;12.10;8.87;;;;;;;4.08;81.91;98862.84;5054142;28;20479;-44
2022/04/08 04:04:37;;;;;;;12.03;8.60;;;;;;;4.10;81.59;98871.34;5054004;28;20435;-51
2022/04/08 04:07:05;;;;;;;18.80;8.70;;;;;;;4.10;80.46;98872.16;5054496;28;20423;-50
2022/04/08 04:09:33;;;;;;;15.67;8.67;;;;;;;4.09;80.76;98869.75;5054598;28;20427;-48
2022/04/08 04:12:01;;;;;;;16.93;8.40;;;;;;;4.08;80.83;98886.56;5054327;28;20453;-48
2022/04/08 04:14:28;;;;;;;11.17;8.70;;;;;;;4.07;80.60;98879.66;5053978;28;20432;-45
2022/04/08 04:16:57;;;;;;;14.27;8.50;;;;;;;4.07;80.96;98885.75;5054459;28;20441;-47
2022/04/08 04:19:25;;;;;;;19.70;8.30;;;;;;;4.07;81.44;98882.28;5054104;28;20445;-46
2022/04/08 04:21:53;;;;;;;11.80;7.40;;;;;;;4.07;80.49;98893.66;5053785;28;20482;-46
2022/04/08 04:24:20;;;;;;;13.10;8.20;;;;;;;4.10;80.26;98892.44;5054141;28;20442;-46
2022/04/08 04:26:48;;;;;;;18.03;8.03;;;;;;;4.08;80.30;98894.47;5053919;28;20467;-45
2022/04/08 04:29:15;;;;;;;10.97;7.27;;;;;;;4.07;81.11;98906.84;5054219;28;20941;-47
2022/04/08 04:31:43;;;;;;;17.87;7.60;;;;;;;4.07;80.62;98901.56;5053886;28;20451;-46
2022/04/08 04:34:12;;;;;;;8.07;7.30;;;;;;;4.11;80.44;98915.19;5054012;28;20431;-48
2022/04/08 04:36:39;;;;;;;15.37;8.43;;;;;;;4.14;80.25;98918.25;5053562;28;20466;-47
2022/04/08 04:39:07;;;;;;;16.03;8.70;;;;;;;4.18;81.23;98921.31;5054130;28;20433;-44
2022/04/08 04:41:35;;;;;;;12.90;7.70;;;;;;;4.19;80.89;98923.72;5053711;28;20463;-47
2022/04/08 04:44:02;;;;;;;18.17;8.83;;;;;;;4.21;80.54;98924.31;5053849;28;20435;-45
2022/04/08 04:46:30;;;;;;;19.77;9.03;;;;;;;4.23;80.32;98924.97;5044852;28;20460;-46
2022/04/08 04:48:58;;;;;;;11.30;8.57;;;;;;;4.25;80.26;98930.84;5051762;28;20427;-45
2022/04/08 04:51:30;;;;;;;12.77;8.13;;;;;;;4.29;80.21;98932.06;5053592;28;20463;-47
2022/04/08 04:53:58;;;;;;;11.00;7.57;;;;;;;4.28;79.54;98940.19;5053820;28;20428;-46
2022/04/08 04:56:26;;;;;;;14.23;8.40;;;;;;;4.28;79.69;98941.00;5053023;28;20471;-45
2022/04/08 04:58:54;;;;;;;13.73;7.20;;;;;;;4.31;79.80;98937.97;5053644;28;20428;-44
2022/04/08 05:01:22;;;;;;;9.67;6.90;;;;;;;4.33;79.06;98948.31;5053128;28;20834;-46
2022/04/08 05:03:50;;;;;;;14.17;7.40;;;;;;;4.34;78.60;98932.28;5053560;28;20513;-45
2022/04/08 05:06:17;;;;;;;14.07;5.87;;;;;;;4.39;77.30;98950.16;5053118;28;20465;-49
2022/04/08 05:08:53;;;;;;;13.53;6.30;;;;;;;4.45;77.63;98951.97;5053684;28;20438;-45
2022/04/08 05:11:20;;;;;;;17.23;6.30;;;;;;;4.51;77.19;98955.66;5052981;28;21030;-45
2022/04/08 05:13:48;;;;;;;20.17;7.37;;;;;;;4.56;76.98;98971.69;5053382;28;20948;-43
2022/04/08 05:16:16;;;;;;;6.60;5.90;;;;;;;4.60;76.90;98975.59;5052790;28;20467;-50
2022/04/08 05:18:43;;;;;;;11.33;6.00;;;;;;;4.65;75.81;98966.03;5053180;28;20493;-47
2022/04/08 05:21:11;;;;;;;14.10;6.43;;;;;;;4.67;75.60;98973.75;5053104;28;20969;-43
2022/04/08 05:23:38;;;;;;;15.27;6.40;;;;;;;4.71;76.01;98978.44;5053143;28;20827;-44
2022/04/08 05:26:07;;;;;;;23.23;6.67;;;;;;;4.73;74.29;98971.13;5052502;28;21013;-47
2022/04/08 05:28:35;;;;;;;10.83;5.50;;;;;;;4.74;73.91;98988.59;5052875;28;20798;-45
2022/04/08 05:31:03;;;;;;;13.43;5.90;;;;;;;4.78;73.70;98979.22;5052018;28;20974;-47
2022/04/08 05:33:30;;;;;;;12.17;5.70;;;;;;;4.82;73.10;98988.38;5052991;28;20431;-50
2022/04/08 05:35:58;;;;;;;9.50;5.10;;;;;;;5.05;71.98;98979.25;5052538;28;20463;-47
2022/04/08 05:38:25;;;;;;;10.23;4.97;;;;;;;5.23;71.26;98982.88;5053276;28;20433;-45
2022/04/08 05:40:53;;;;;;;13.10;5.23;;;;;;;5.42;71.18;98987.34;5052501;28;20451;-45
2022/04/08 05:43:22;;;;;;;16.67;5.13;;;;;;;5.82;69.03;98993.38;5052738;28;20463;-47
2022/04/08 05:45:50;;;;;;;10.57;4.77;;;;;;;6.55;69.61;98996.50;5049337;28;20467;-50
2022/04/08 05:48:17;;;;;;;7.53;4.90;;;;;;;7.27;66.80;98997.81;5045269;28;20474;-49
2022/04/08 05:50:45;;;;;;;6.60;5.37;;;;;;;7.80;63.07;98997.06;5052232;28;20451;-46
2022/04/08 05:53:13;;;;;;;13.57;5.33;;;;;;;8.24;61.36;98998.59;5052777;28;20423;-48
2022/04/08 05:56:02;;;;;;;10.03;5.80;;;;;;;8.36;60.24;99004.00;5052238;28;20455;-49
2022/04/08 05:58:32;;;;;;;8.63;5.40;;;;;;;8.09;60.89;99006.16;5052340;28;20952;-46
2022/04/08 06:00:59;;;;;;;20.00;5.73;;;;;;;7.92;61.13;99005.13;5052021;28;20839;-48
2022/04/08 06:03:27;;;;;;;12.70;5.63;;;;;;;7.66;61.28;99011.53;5052272;28;20471;-48
2022/04/08 06:05:55;;;;;;;17.20;6.13;;;;;;;7.83;62.80;99011.75;5051858;28;20467;-50
2022/04/08 06:08:23;;;;;;;13.30;5.47;;;;;;;8.43;59.98;99019.84;5052155;28;20454;-51
2022/04/08 06:10:51;;;;;;;15.63;5.47;;;;;;;8.82;59.82;99014.00;5052082;28;20458;-46
2022/04/08 06:13:24;;;;;;;11.10;6.50;;;;;;;8.54;57.10;99016.44;5052111;28;20437;-49
2022/04/08 06:15:53;;;;;;;12.63;5.30;;;;;;;9.80;58.05;99008.84;5051705;28;20463;-47
2022/04/08 06:18:21;;;;;;;15.47;5.70;;;;;;;10.27;53.92;99012.28;5052006;28;20431;-48
2022/04/08 06:20:49;;;;;;;14.00;5.30;;;;;;;9.76;53.57;99007.72;5051926;28;20475;-50
2022/04/08 06:23:17;;;;;;;11.40;6.10;;;;;;;9.95;51.40;99019.84;5052122;28;20463;-50
2022/04/08 06:25:44;;;;;;;10.33;4.90;;;;;;;9.72;53.22;99022.53;5051482;28;20838;-48
2022/04/08 06:28:12;;;;;;;9.30;5.13;;;;;;;9.28;54.29;99021.25;5051989;28;20439;-45
2022/04/08 06:30:40;;;;;;;14.23;5.90;;;;;;;8.51;55.06;99020.34;5051528;28;20861;-45
2022/04/08 06:33:10;;;;;;;12.77;6.10;;;;;;;8.08;57.61;99024.94;5052001;28;20484;-47
2022/04/08 06:35:38;;;;;;;7.03;4.93;;;;;;;7.76;58.67;99024.28;5051526;28;20465;-47
2022/04/08 06:38:07;;;;;;;7.57;5.87;;;;;;;7.42;61.80;99027.47;5051963;28;20791;-48
2022/04/08 06:40:38;;;;;;;16.10;5.03;;;;;;;8.58;59.78;99033.53;5051326;28;20946;-44
2022/04/08 06:43:06;;;;;;;12.90;5.43;;;;;;;9.10;58.40;99026.66;5050907;28;20475;-49
2022/04/08 06:45:34;;;;;;;10.00;5.03;;;;;;;9.55;54.51;99022.44;5049041;28;20830;-45
2022/04/08 06:48:02;;;;;;;8.10;5.50;;;;;;;10.27;54.35;99023.75;5043384;28;20427;-46
2022/04/08 06:50:33;;;;;;;14.57;6.10;;;;;;;10.43;51.72;99025.66;5051500;28;20431;-49
2022/04/08 06:53:01;;;;;;;9.67;5.13;;;;;;;11.07;52.49;99029.78;5051649;28;20968;-44
2022/04/08 06:55:29;;;;;;;16.27;6.70;;;;;;;10.68;50.49;99029.84;5051132;28;20459;-47
2022/04/08 06:57:59;;;;;;;8.93;5.80;;;;;;;11.15;51.12;99027.75;5051486;28;20443;-45
2022/04/08 07:00:27;;;;;;;12.60;5.03;;;;;;;11.45;48.38;99015.72;5051275;28;20555;-47
2022/04/08 07:02:55;;;;;;;9.57;5.00;;;;;;;11.65;49.20;99025.88;5051638;28;20419;-45
2022/04/08 07:05:25;;;;;;;11.93;5.67;;;;;;;11.44;46.20;99029.31;5051080;28;20455;-45
2022/04/08 07:07:54;;;;;;;9.83;5.20;;;;;;;11.52;46.82;99028.91;5051439;28;20431;-47
2022/04/08 07:10:22;;;;;;;9.17;5.40;;;;;;;11.90;46.27;99023.59;5051276;28;20427;-46
2022/04/08 07:12:49;;;;;;;11.53;5.70;;;;;;;11.61;46.91;99030.91;5051373;28;20435;-46
2022/04/08 07:15:17;;;;;;;14.20;5.77;;;;;;;11.76;45.68;99035.69;5050881;28;20520;-45
2022/04/08 07:17:45;;;;;;;9.13;5.27;;;;;;;11.65;46.59;99036.56;5051438;28;20431;-47
2022/04/08 07:20:17;;;;;;;11.17;5.60;;;;;;;11.24;47.28;99036.97;5051178;28;20537;-51
2022/04/08 07:22:46;;;;;;;8.70;4.67;;;;;;;10.45;48.25;99041.44;5051305;28;20485;-45
2022/04/08 07:25:16;;;;;;;11.57;5.27;;;;;;;9.95;49.76;99054.47;5050714;28;20475;-46
2022/04/08 07:27:45;;;;;;;10.47;5.07;;;;;;;9.76;49.99;99055.63;5051575;28;20474;-45
2022/04/08 07:30:14;;;;;;;8.17;5.40;;;;;;;9.66;51.26;99060.72;5051091;28;20457;-49
2022/04/08 07:32:42;;;;;;;6.53;5.53;;;;;;;9.53;50.01;99053.75;5051219;28;20431;-47
2022/04/08 07:35:10;;;;;;;12.63;5.70;;;;;;;9.47;51.90;99048.59;5050835;28;20470;-49
2022/04/08 07:37:39;;;;;;;9.40;5.17;;;;;;;9.60;52.90;99045.69;5051273;28;20437;-49
2022/04/08 07:40:08;;;;;;;9.03;5.60;;;;;;;9.65;52.60;99045.78;5051392;28;20435;-46
2022/04/08 07:42:38;;;;;;;20.17;6.20;;;;;;;9.24;52.66;99049.34;5050961;28;21244;-48
2022/04/08 07:45:07;;;;;;;14.77;5.60;;;;;;;9.40;53.63;99054.00;5048364;28;20470;-45
2022/04/08 07:47:35;;;;;;;9.90;5.33;;;;;;;9.18;55.07;99037.78;5042797;28;20428;-45
2022/04/08 07:50:05;;;;;;;15.13;5.13;;;;;;;8.92;54.77;99056.78;5051045;28;20442;-47
2022/04/08 07:52:33;;;;;;;9.23;4.87;;;;;;;8.58;56.05;99071.56;5050797;28;20447;-47
2022/04/08 07:55:02;;;;;;;10.77;5.53;;;;;;;8.11;56.86;99067.81;5054265;28;20997;-45
2022/04/08 07:57:29;;;;;;;11.07;5.27;;;;;;;7.69;56.93;99071.28;5054876;28;20425;-46
2022/04/08 07:59:58;;;;;;;14.40;5.30;;;;;;;8.13;56.28;99067.56;5054548;28;20453;-44
2022/04/08 08:02:29;;;;;;;15.03;5.93;;;;;;;8.70;55.86;99077.72;5054207;28;20467;-45
2022/04/08 08:04:57;;;;;;;6.13;5.30;;;;;;;9.22;54.21;99075.38;5053923;28;20501;-45
2022/04/08 08:07:24;;;;;;;11.30;5.57;;;;;;;9.36;53.40;99085.56;5055008;28;20423;-46
2022/04/08 08:09:53;;;;;;;12.60;5.63;;;;;;;8.90;54.06;99083.59;5054695;28;20435;-47
2022/04/08 08:12:23;;;;;;;11.73;6.50;;;;;;;9.33;54.06;99080.72;5054280;28;20460;-44
2022/04/08 08:14:54;;;;;;;7.23;5.70;;;;;;;9.14;51.94;99083.69;5054025;28;20455;-46
2022/04/08 08:17:23;;;;;;;8.80;5.93;;;;;;;9.17;51.10;99081.34;5054438;28;20433;-48
2022/04/08 08:19:50;;;;;;;7.50;5.43;;;;;;;9.33;50.41;99086.03;5054685;28;20427;-51
2022/04/08 08:22:24;;;;;;;6.80;5.40;;;;;;;9.30;52.52;99088.31;5054304;28;20796;-47
2022/04/08 08:24:51;;;;;;;8.60;5.40;;;;;;;9.10;53.13;99090.47;5053859;28;20818;-49
2022/04/08 08:27:19;;;;;;;10.60;5.93;;;;;;;9.00;54.27;99104.31;5054209;28;20431;-46
2022/04/08 08:29:47;;;;;;;5.97;4.57;;;;;;;8.57;52.56;99103.69;5054065;28;20433;-46
2022/04/08 08:32:14;;;;;;;10.60;4.70;;;;;;;8.12;53.01;99103.91;5053943;28;20453;-50
2022/04/08 08:34:44;;;;;;;10.10;7.10;;;;;;;8.24;53.06;99114.66;5053442;28;20998;-48
2022/04/08 08:37:11;;;;;;;5.67;4.70;;;;;;;8.53;51.80;99119.25;5054124;28;20454;-49
2022/04/08 08:39:39;;;;;;;9.03;4.70;;;;;;;8.29;50.92;99118.28;5053921;28;20993;-47
2022/04/08 08:42:07;;;;;;;7.60;4.53;;;;;;;8.39;51.45;99127.59;5053565;28;20447;-51
2022/04/08 08:44:34;;;;;;;12.00;5.10;;;;;;;8.21;52.33;99120.41;5052563;28;20829;-51
2022/04/08 08:47:03;;;;;;;11.50;5.93;;;;;;;8.36;53.57;99117.41;5044188;28;20935;-47
2022/04/08 08:49:31;;;;;;;7.47;4.20;;;;;;;8.75;50.56;99115.06;5053900;28;20431;-51
2022/04/08 08:52:01;;;;;;;5.37;4.13;;;;;;;8.84;51.32;99119.03;5053485;28;20479;-47
2022/04/08 08:54:28;;;;;;;11.50;5.30;;;;;;;8.63;51.68;99127.47;5053452;28;20502;-47
2022/04/08 08:56:57;;;;;;;8.47;5.23;;;;;;;8.40;52.94;99129.19;5053448;28;20434;-50
2022/04/08 08:59:26;;;;;;;7.63;5.00;;;;;;;8.23;54.46;99132.41;5053931;28;20510;-49
2022/04/08 09:02:00;;;;;;;13.63;5.90;;;;;;;8.19;52.77;99119.78;5053093;28;20459;-47
2022/04/08 09:04:28;;;;;;;9.07;5.00;;;;;;;8.40;52.35;99121.22;5052071;28;20482;-45
2022/04/08 09:06:56;;;;;;;11.30;5.03;;;;;;;8.87;51.92;99117.78;5053419;28;20988;-44
2022/04/08 09:09:32;;;;;;;11.77;5.43;;;;;;;9.38;51.54;99117.25;5053226;28;20453;-50
2022/04/08 09:12:13;;;;;;;11.43;5.20;;;;;;;9.97;50.70;99116.31;5053113;28;20454;-50
2022/04/08 09:14:45;;;;;;;8.23;4.27;;;;;;;10.28;49.24;99118.59;5052749;28;20423;-48
2022/04/08 09:17:12;;;;;;;4.77;4.30;;;;;;;9.91;48.99;99112.72;5053296;28;20450;-47
2022/04/08 09:19:40;;;;;;;9.23;4.00;;;;;;;9.81;50.00;99116.97;5053116;28;20428;-47
2022/04/08 09:22:10;;;;;;;6.23;4.50;;;;;;;9.62;51.05;99116.25;5052971;28;20462;-46
2022/04/08 09:24:40;;;;;;;9.43;4.63;;;;;;;9.30;52.56;99134.38;5052642;28;20466;-47
2022/04/08 09:27:07;;;;;;;15.97;5.10;;;;;;;8.96;53.91;99136.91;5052898;28;20438;-46
2022/04/08 09:29:35;;;;;;;7.10;4.70;;;;;;;8.73;53.87;99137.59;5053012;28;20438;-46
2022/04/08 09:32:27;;;;;;;10.90;4.07;;;;;;;8.77;55.82;99136.94;5052872;28;20534;-48
2022/04/08 09:34:55;;;;;;;8.90;4.50;;;;;;;8.91;54.31;99137.56;5052651;28;20459;-44
2022/04/08 09:37:23;;;;;;;6.73;5.03;;;;;;;8.80;53.83;99131.19;5053051;28;20435;-46
2022/04/08 09:39:56;;;;;;;10.70;5.60;;;;;;;9.25;53.72;99134.25;5053087;28;20428;-49
2022/04/08 09:42:24;;;;;;;9.90;5.87;;;;;;;9.71;52.57;99127.38;5052515;28;20466;-50
2022/04/08 09:44:52;;;;;;;9.87;5.43;;;;;;;10.24;49.61;99114.00;5049727;28;20467;-45
2022/04/08 09:47:19;;;;;;;6.23;4.60;;;;;;;10.90;50.39;99118.81;5044595;28;20786;-45
2022/04/08 09:49:47;;;;;;;8.40;4.90;;;;;;;10.77;49.59;99119.91;5052731;28;20938;-45
2022/04/08 09:52:16;;;;;;;7.17;5.33;;;;;;;10.59;50.19;99121.91;5052736;28;20458;-50
2022/04/08 09:54:44;;;;;;;6.03;4.60;;;;;;;10.35;49.72;99118.50;5052007;28;20802;-46
2022/04/08 09:57:18;;;;;;;6.10;4.50;;;;;;;10.13;50.29;99123.59;5052322;28;20435;-48
2022/04/08 09:59:48;;;;;;;9.93;4.63;;;;;;;10.05;51.69;99123.13;5052637;28;20431;-49
2022/04/08 10:02:25;;;;;;;10.30;5.03;;;;;;;9.84;51.77;99135.97;5052123;28;20477;-47
2022/04/08 10:05:04;;;;;;;6.77;4.63;;;;;;;9.68;51.95;99125.97;5051870;28;20479;-48
2022/04/08 10:07:32;;;;;;;14.20;4.33;;;;;;;9.71;51.12;99117.53;5052228;28;20427;-47
2022/04/08 10:10:07;;;;;;;10.50;5.20;;;;;;;9.51;51.43;99126.88;5052178;28;20439;-49
2022/04/08 10:12:44;;;;;;;9.53;4.57;;;;;;;9.23;52.95;99128.31;5051949;28;20950;-45
2022/04/08 10:15:21;;;;;;;8.53;4.47;;;;;;;8.99;52.38;99133.81;5051760;28;20454;-48
2022/04/08 10:17:56;;;;;;;9.00;4.00;;;;;;;8.53;53.60;99129.06;5052021;28;20430;-47
2022/04/08 10:20:24;;;;;;;5.00;4.00;;;;;;;8.58;54.10;99139.81;5051982;28;20445;-49
2022/04/08 10:22:52;;;;;;;9.27;4.10;;;;;;;8.79;54.79;99128.72;5052186;28;20427;-46
2022/04/08 10:25:22;;;;;;;7.20;4.47;;;;;;;8.79;53.24;99120.75;5051226;28;20503;-50
2022/04/08 10:27:59;;;;;;;10.63;4.97;;;;;;;9.23;54.21;99119.53;5052057;28;20439;-45
2022/04/08 10:30:27;;;;;;;9.80;5.40;;;;;;;9.66;53.67;99122.75;5051770;28;20767;-51
2022/04/08 10:32:59;;;;;;;9.63;5.20;;;;;;;9.92;53.73;99121.50;5051732;28;20446;-50
2022/04/08 10:35:27;;;;;;;8.93;5.90;;;;;;;9.97;53.33;99109.09;5051378;28;20466;-46
2022/04/08 10:37:56;;;;;;;11.90;5.90;;;;;;;9.69;51.83;99126.81;5051797;28;20423;-48
2022/04/08 10:40:31;;;;;;;6.60;4.53;;;;;;;9.45;52.40;99133.94;5075843;22;20451;-44
2022/04/08 10:43:02;;;;;;;7.73;4.90;;;;;;;9.04;55.41;99187.09;5012043;28;20425;-47
2022/04/08 10:45:30;;;;;;;6.67;5.77;;;;;;;6.62;69.17;99202.06;5017646;28;20471;-44
2022/04/08 10:48:01;;;;;;;10.77;9.87;;;;;;;5.35;79.85;99199.81;5023701;28;20523;-45
2022/04/08 10:50:30;;;;;;;27.20;25.70;;;;;;;4.64;88.31;99214.41;5031868;28;20446;-48
2022/04/08 10:53:05;;;;;;;29.67;28.20;;;;;;;3.89;96.30;99225.66;5031706;28;20436;-45
2022/04/08 10:55:44;;;;;;;32.73;30.43;;;;;;;3.63;97.65;99218.34;5031101;28;20456;-45
2022/04/08 10:58:15;;;;;;;31.80;29.73;;;;;;;3.65;98.31;99226.06;5031894;28;20439;-43
2022/04/08 11:00:44;;;;;;;31.40;29.80;;;;;;;3.65;98.26;99197.88;5030362;28;20479;-42
2022/04/08 11:03:12;;;;;;;31.27;29.27;;;;;;;3.75;98.35;99187.84;5031453;28;20432;-45
2022/04/08 11:05:40;;;;;;;31.67;29.83;;;;;;;3.74;97.52;99224.94;5024592;28;20469;-48
2022/04/08 11:08:08;;;;;;;32.20;30.17;;;;;;;3.26;98.13;99252.81;5019202;28;20459;-45
2022/04/08 11:10:36;;;;;;;32.57;30.67;;;;;;;2.96;96.73;99240.72;5009898;28;20461;-43
2022/04/08 11:13:04;;;;;;;32.90;30.80;;;;;;;3.10;93.89;99234.63;5011214;28;20464;-44
2022/04/08 11:15:33;;;;;;;30.93;29.20;;;;;;;2.94;94.21;99225.13;5011160;28;20473;-43
2022/04/08 11:18:01;;;;;;;31.23;29.37;;;;;;;2.76;93.93;99238.69;5011772;28;20455;-47
2022/04/08 11:20:29;;;;;;;31.33;29.70;;;;;;;2.60;93.12;99211.72;5011349;28;20835;-45
2022/04/08 11:22:58;;;;;;;28.40;27.20;;;;;;;2.54;91.85;99223.78;5011690;28;20437;-42
2022/04/08 11:25:27;;;;;;;30.13;28.77;;;;;;;2.61;88.33;99235.22;5011249;28;20549;-43
2022/04/08 11:28:02;;;;;;;30.50;29.10;;;;;;;2.76;86.54;99220.25;5012653;28;20441;-44
2022/04/08 11:30:30;;;;;;;32.13;30.40;;;;;;;2.90;85.50;99217.78;5015341;28;20447;-46
2022/04/08 11:33:12;;;;;;;33.23;31.20;;;;;;;3.16;84.13;99208.38;5015452;28;20437;-43
2022/04/08 11:35:39;;;;;;;31.63;30.23;;;;;;;3.47;81.53;99210.69;5015185;28;20464;-43
2022/04/08 11:38:13;;;;;;;31.33;29.93;;;;;;;3.57;86.27;99213.03;5015749;28;20433;-44
2022/04/08 11:40:40;;;;;;;27.90;26.30;;;;;;;3.61;88.90;99209.84;5014453;28;20467;-42
2022/04/08 11:43:09;;;;;;;26.40;24.50;;;;;;;3.55;90.47;99223.78;5017240;28;20432;-46